Eiwa Maru — JG5742 — position and weather

sailwx.info

Track history (hours):
 
Tides and Currents Weather Stations Pressure Air Temp Water Temp Dewpoint Dewpoint Depression Visibility Wind Speed Wind Dir Waves Ship Positions

Eiwa Maru

Last reported at 2018-Apr-22 12:06 UTC. Time now 2018-Apr-22 12:32 UTC.
Position N 34°24' E 134°15'.

Length 80 m; draft 5.2 m.

Type: Ship (hazmat cat A). MMSI: 431101045.

Date/timePositionNaut miles runAvg speedWind from/ knotsBaromVisibWave heightAir tempDewpointWater temp
2018-Apr-22 12:06N 34°24' E 134°15'112.2
2018-Apr-22 11:58N 34°24' E 134°17'612.0
2018-Apr-22 11:26N 34°23' E 134°24'512.7
2018-Apr-22 11:00N 34°20' E 134°30'912.1
2018-Apr-22 10:15N 34°14' E 134°39'311.0
2018-Apr-22 10:00N 34°12' E 134°41'611.6
2018-Apr-22 09:29N 34°07' E 134°45'612.6
2018-Apr-22 08:58N 34°03' E 134°50'612.5
2018-Apr-22 08:29N 33°58' E 134°55'612.3
2018-Apr-22 08:00N 33°53' E 134°60'13110.5
2018-Apr-21 19:32N 34°21' E 137°35'012.0
2018-Apr-21 19:30N 34°21' E 137°35'5912.3
2018-Apr-21 14:40N 34°34' E 138°45'412.2
2018-Apr-21 14:23N 34°34' E 138°50'511.9
2018-Apr-21 13:59N 34°35' E 138°55'812.5
2018-Apr-21 13:22N 34°40' E 139°02'711.7
2018-Apr-21 12:45N 34°47' E 139°07'311.7
2018-Apr-21 12:28N 34°49' E 139°09'611.3
2018-Apr-21 11:57N 34°53' E 139°14'711.0
2018-Apr-21 11:20N 34°57' E 139°21'410.8
2018-Apr-21 11:00N 34°59' E 139°25'510.4
2018-Apr-21 10:30N 35°01' E 139°31'611.5
2018-Apr-21 10:00N 35°04' E 139°37'611.3
2018-Apr-21 09:29N 35°07' E 139°43'511.6
2018-Apr-21 09:00N 35°12' E 139°46'510.6
2018-Apr-21 08:30N 35°17' E 139°44'611.6
2018-Apr-21 08:00N 35°23' E 139°42'611.0
2018-Apr-21 07:30N 35°27' E 139°47'510.7
2018-Apr-21 07:00N 35°29' E 139°53'1 2.9
2018-Apr-21 06:30N 35°29' E 139°54'0 0.0
2018-Apr-21 06:00N 35°29' E 139°54'2 4.6
2018-Apr-21 05:30N 35°30' E 139°56'611.8
2018-Apr-21 05:00N 35°33' E 140°03'2 3.2
2018-Apr-21 04:30N 35°33' E 140°05'0 0.0
2018-Apr-21 04:00N 35°33' E 140°05'0 0.0
2018-Apr-21 03:30N 35°33' E 140°05'0 0.1
2018-Apr-21 03:00N 35°33' E 140°05'0 0.1
2018-Apr-21 02:30N 35°33' E 140°05'0 0.0
2018-Apr-21 02:00N 35°33' E 140°05'0 0.0
2018-Apr-21 01:30N 35°33' E 140°05'0 0.0
2018-Apr-21 01:00N 35°33' E 140°05'0 0.1
2018-Apr-21 00:30N 35°33' E 140°05'0 0.0
2018-Apr-21 00:00N 35°33' E 140°05'0 0.7
2018-Apr-20 23:30N 35°33' E 140°04'2 3.3
2018-Apr-20 23:00N 35°33' E 140°02'0 0.0
2018-Apr-20 22:30N 35°33' E 140°02'0 0.0
2018-Apr-20 22:00N 35°33' E 140°02'0 0.1
2018-Apr-20 21:30N 35°33' E 140°02'3 6.3
2018-Apr-20 21:00N 35°36' E 140°05'1 1.3
2018-Apr-20 20:30N 35°36' E 140°06'0 0.0
2018-Apr-20 20:00N 35°36' E 140°06'0 0.0
2018-Apr-20 19:30N 35°36' E 140°06'0 0.0
2018-Apr-20 19:00N 35°36' E 140°06'0 0.0
2018-Apr-20 18:30N 35°36' E 140°06'0 0.0
2018-Apr-20 18:00N 35°36' E 140°06'0 0.0
2018-Apr-20 17:29N 35°36' E 140°06'0 0.0
2018-Apr-20 17:00N 35°36' E 140°06'0 0.0
2018-Apr-20 16:25N 35°36' E 140°06'0 0.0
2018-Apr-20 16:00N 35°36' E 140°06'0 0.0
2018-Apr-20 15:29N 35°36' E 140°06'0 0.0
2018-Apr-20 14:59N 35°36' E 140°06'0 0.0
2018-Apr-20 14:30N 35°36' E 140°06'0 0.0
2018-Apr-20 14:00N 35°36' E 140°06'0 0.0
2018-Apr-20 13:30N 35°36' E 140°06'0 0.0
2018-Apr-20 13:00N 35°36' E 140°06'0 0.0
2018-Apr-20 12:29N 35°36' E 140°06'0 0.0
2018-Apr-20 12:00N 35°36' E 140°06'0 0.0
2018-Apr-20 11:30N 35°36' E 140°06'0 0.0
2018-Apr-20 11:00N 35°36' E 140°06'0 0.0
2018-Apr-20 10:30N 35°36' E 140°06'0 0.0
2018-Apr-20 10:00N 35°36' E 140°06'0 0.0
2018-Apr-20 09:30N 35°36' E 140°06'0 0.0
2018-Apr-20 09:00N 35°36' E 140°06'0 0.0
2018-Apr-20 08:30N 35°36' E 140°06'0 0.0
2018-Apr-20 07:59N 35°36' E 140°06'0 0.0
2018-Apr-20 07:30N 35°36' E 140°06'0 0.0
2018-Apr-20 07:00N 35°36' E 140°06'0 0.0
2018-Apr-20 06:30N 35°36' E 140°06'0 0.0
2018-Apr-20 06:00N 35°36' E 140°06'0 0.0
2018-Apr-20 05:30N 35°36' E 140°06'0 0.0
2018-Apr-20 05:00N 35°36' E 140°06'0 0.0
2018-Apr-20 04:30N 35°36' E 140°06'0 0.0
2018-Apr-20 04:00N 35°36' E 140°06'0 0.0
2018-Apr-20 03:30N 35°36' E 140°06'1 1.8
2018-Apr-20 03:00N 35°35' E 140°05'612.0
2018-Apr-20 02:30N 35°32' E 139°59'612.7
2018-Apr-20 02:00N 35°29' E 139°52'612.4
2018-Apr-20 01:30N 35°25' E 139°47'612.1
2018-Apr-20 01:00N 35°19' E 139°44'611.5
2018-Apr-20 00:30N 35°14' E 139°47'612.1
2018-Apr-20 00:00N 35°08' E 139°46'611.9
2018-Apr-19 23:30N 35°03' E 139°41'712.9
2018-Apr-19 23:00N 34°59' E 139°35'713.9
2018-Apr-19 22:30N 34°55' E 139°28'713.8
2018-Apr-19 22:00N 34°51' E 139°21'713.2
2018-Apr-19 21:30N 34°47' E 139°15'713.2
2018-Apr-19 20:57N 34°42' E 139°08'613.1
2018-Apr-19 20:30N 34°39' E 139°02'612.8
2018-Apr-19 20:00N 34°35' E 138°56'713.6
2018-Apr-19 19:29N 34°34' E 138°47'713.6
2018-Apr-19 18:59N 34°33' E 138°39'1013.5
2018-Apr-19 18:14N 34°33' E 138°27'513.2
2018-Apr-19 17:51N 34°32' E 138°21'613.2
2018-Apr-19 17:26N 34°32' E 138°14'27112.2
2018-Apr-18 19:12N 32°45' E 133°15'8411.5
2018-Apr-18 11:51N 33°32' E 131°51'511.5
2018-Apr-18 11:25N 33°36' E 131°47'511.7
2018-Apr-18 11:00N 33°39' E 131°43'611.6
2018-Apr-18 10:30N 33°42' E 131°37'611.6
2018-Apr-18 10:00N 33°44' E 131°31'612.7
2018-Apr-18 09:30N 33°47' E 131°24'712.9
2018-Apr-18 09:00N 33°49' E 131°17'712.9
2018-Apr-18 08:28N 33°52' E 131°09'613.3
2018-Apr-18 08:00N 33°56' E 131°03'510.9
2018-Apr-18 07:30N 33°57' E 130°57'4 9.0
2018-Apr-18 07:00N 33°53' E 130°54'0 0.0
2018-Apr-18 06:30N 33°53' E 130°54'0 0.0
2018-Apr-18 06:00N 33°53' E 130°54'0 0.0
2018-Apr-18 05:31N 33°53' E 130°54'0 0.0
2018-Apr-18 05:00N 33°53' E 130°54'0 0.0
2018-Apr-18 04:31N 33°53' E 130°54'0 0.0
2018-Apr-18 04:00N 33°53' E 130°54'0 0.0
2018-Apr-18 03:30N 33°53' E 130°54'0 0.0
2018-Apr-18 03:00N 33°53' E 130°54'1 2.1
2018-Apr-18 02:30N 33°54' E 130°55'612.6
2018-Apr-18 02:01N 33°59' E 130°60'4 7.3
2018-Apr-18 01:30N 33°56' E 131°03'0 0.0
2018-Apr-18 01:00N 33°56' E 131°03'0 0.0
2018-Apr-18 00:30N 33°56' E 131°03'0 0.0
2018-Apr-18 00:00N 33°56' E 131°03'0 0.0
2018-Apr-17 23:30N 33°56' E 131°03'0 0.0
2018-Apr-17 23:00N 33°56' E 131°03'0 0.0
2018-Apr-17 22:30N 33°56' E 131°03'0 0.0
2018-Apr-17 22:01N 33°56' E 131°03'0 0.1
2018-Apr-17 21:30N 33°56' E 131°03'0 0.0
2018-Apr-17 21:00N 33°56' E 131°03'0 0.0
2018-Apr-17 20:30N 33°56' E 131°03'0 0.0
2018-Apr-17 20:00N 33°56' E 131°03'0 0.0
2018-Apr-17 19:31N 33°56' E 131°03'0 0.0
2018-Apr-17 19:00N 33°56' E 131°03'0 0.0
2018-Apr-17 18:30N 33°56' E 131°03'0 0.1
2018-Apr-17 18:00N 33°56' E 131°03'0 0.1
2018-Apr-17 17:30N 33°56' E 131°03'0 0.0
2018-Apr-17 17:01N 33°56' E 131°03'0 0.0
2018-Apr-17 16:30N 33°56' E 131°03'0 0.0
2018-Apr-17 16:00N 33°56' E 131°03'0 0.1
2018-Apr-17 15:30N 33°56' E 131°03'0 0.0
2018-Apr-17 15:00N 33°56' E 131°03'0 0.1
2018-Apr-17 14:30N 33°56' E 131°03'0 0.0
2018-Apr-17 14:00N 33°56' E 131°03'0 0.0
2018-Apr-17 13:30N 33°56' E 131°03'0 0.0
2018-Apr-17 13:00N 33°56' E 131°03'1 1.3
2018-Apr-17 12:30N 33°56' E 131°02'1 2.7
2018-Apr-17 12:00N 33°55' E 131°03'612.6
2018-Apr-17 11:30N 33°53' E 131°10'713.7
2018-Apr-17 11:00N 33°51' E 131°19'713.5
2018-Apr-17 10:30N 33°50' E 131°27'713.4
2018-Apr-17 10:00N 33°49' E 131°34'713.3
2018-Apr-17 09:30N 33°48' E 131°42'713.1
2018-Apr-17 08:59N 33°46' E 131°50'912.8
2018-Apr-17 08:15N 33°46' E 132°02'1612.9
2018-Apr-17 06:58N 33°50' E 132°21'1113.7
2018-Apr-17 06:11N 33°53' E 132°33'214.0
2018-Apr-17 06:01N 33°54' E 132°36'814.9
2018-Apr-17 05:29N 33°59' E 132°43'7 0.8
2018-Apr-16 19:55N 34°03' E 132°51'0 0.0
2018-Apr-16 15:55N 34°03' E 132°51'3 0.2
2018-Apr-15 18:42N 34°01' E 132°47'210.8
2018-Apr-15 18:30N 33°60' E 132°45'510.0
2018-Apr-15 18:00N 33°56' E 132°41'610.5
2018-Apr-15 17:27N 33°53' E 132°35'1011.0
2018-Apr-15 16:33N 33°50' E 132°24'111.1
2018-Apr-15 16:29N 33°50' E 132°23'811.3
2018-Apr-15 15:49N 33°50' E 132°13'711.1
2018-Apr-15 15:09N 33°46' E 132°06'211.6
2018-Apr-15 15:00N 33°45' E 132°04'612.2
2018-Apr-15 14:30N 33°45' E 131°57'612.7
2018-Apr-15 14:00N 33°46' E 131°49'713.0
2018-Apr-15 13:30N 33°48' E 131°42'713.0
2018-Apr-15 13:00N 33°49' E 131°34'612.6
2018-Apr-15 12:30N 33°50' E 131°27'612.3
2018-Apr-15 12:00N 33°51' E 131°19'611.4
2018-Apr-15 11:29N 33°54' E 131°13'3 6.0
2018-Apr-15 11:00N 33°56' E 131°11'0 0.0
2018-Apr-15 10:30N 33°56' E 131°11'0 0.0
2018-Apr-15 10:00N 33°56' E 131°11'0 0.0
2018-Apr-15 09:30N 33°56' E 131°11'0 0.0
2018-Apr-15 09:01N 33°56' E 131°11'0 0.0
2018-Apr-15 08:30N 33°56' E 131°11'0 0.0
2018-Apr-15 08:00N 33°56' E 131°11'0 0.0
2018-Apr-15 07:31N 33°56' E 131°11'0 0.0
2018-Apr-15 07:00N 33°56' E 131°11'0 0.0
2018-Apr-15 06:29N 33°56' E 131°11'1 1.8
2018-Apr-15 06:00N 33°56' E 131°12'2 3.5
2018-Apr-15 05:30N 33°54' E 131°12'0 0.0
2018-Apr-15 05:00N 33°54' E 131°12'0 0.0
2018-Apr-15 04:31N 33°54' E 131°12'0 0.0
2018-Apr-15 04:01N 33°54' E 131°12'0 0.0
2018-Apr-15 03:30N 33°54' E 131°12'0 0.0
2018-Apr-15 03:01N 33°54' E 131°12'0 0.0
2018-Apr-15 02:30N 33°54' E 131°12'0 0.0
2018-Apr-15 02:01N 33°54' E 131°12'0 0.0
2018-Apr-15 01:30N 33°54' E 131°12'0 0.0
2018-Apr-15 01:00N 33°54' E 131°12'0 0.0
2018-Apr-15 00:30N 33°54' E 131°12'0 0.0
2018-Apr-15 00:00N 33°54' E 131°12'0 0.0
2018-Apr-14 23:30N 33°54' E 131°12'0 0.1
2018-Apr-14 23:00N 33°54' E 131°12'0 0.1
2018-Apr-14 22:30N 33°54' E 131°12'0 0.1
2018-Apr-14 22:00N 33°54' E 131°11'0 0.1
2018-Apr-14 21:31N 33°54' E 131°12'0 0.1
2018-Apr-14 21:01N 33°54' E 131°11'0 0.0
2018-Apr-14 20:30N 33°54' E 131°11'0 0.0
2018-Apr-14 20:00N 33°54' E 131°11'0 0.0
2018-Apr-14 19:30N 33°54' E 131°11'0 0.1
2018-Apr-14 19:00N 33°54' E 131°12'0 0.0
2018-Apr-14 18:30N 33°54' E 131°12'0 0.1
2018-Apr-14 17:58N 33°54' E 131°12'0 0.0
2018-Apr-14 17:31N 33°54' E 131°12'0 0.0
2018-Apr-14 17:01N 33°54' E 131°12'0 0.0
2018-Apr-14 16:30N 33°54' E 131°12'0 0.0
2018-Apr-14 16:01N 33°54' E 131°12'0 0.0
2018-Apr-14 15:30N 33°54' E 131°12'0 0.0
2018-Apr-14 15:00N 33°54' E 131°12'0 0.0
2018-Apr-14 14:30N 33°54' E 131°12'0 0.0
2018-Apr-14 14:01N 33°54' E 131°12'0 0.0
2018-Apr-14 13:30N 33°54' E 131°12'0 0.0
2018-Apr-14 13:00N 33°54' E 131°12'0 0.0
2018-Apr-14 12:30N 33°54' E 131°12'0 0.1
2018-Apr-14 12:00N 33°54' E 131°12'0 0.2
2018-Apr-14 11:30N 33°54' E 131°11'0 0.0
2018-Apr-14 11:00N 33°54' E 131°11'0 0.0
2018-Apr-14 10:31N 33°54' E 131°11'0 0.0
2018-Apr-14 10:00N 33°54' E 131°11'0 0.0
2018-Apr-14 09:31N 33°54' E 131°11'3 6.3
2018-Apr-14 09:00N 33°52' E 131°15'713.9
2018-Apr-14 08:31N 33°51' E 131°23'713.7
2018-Apr-14 08:00N 33°50' E 131°31'713.8
2018-Apr-14 07:29N 33°48' E 131°40'613.0
2018-Apr-14 06:59N 33°47' E 131°47'1213.0
2018-Apr-14 06:03N 33°46' E 132°02'112.9
2018-Apr-14 06:01N 33°46' E 132°02'1813.2
2018-Apr-14 04:37N 33°50' E 132°24'414.1
2018-Apr-14 04:18N 33°52' E 132°29'414.1
2018-Apr-14 04:00N 33°53' E 132°33'814.4
2018-Apr-14 03:27N 33°57' E 132°42'  
Track history (hours):
 
Tides and Currents Weather Stations Pressure Air Temp Water Temp Dewpoint Dewpoint Depression Visibility Wind Speed Wind Dir Waves Ship Positions

Eiwa Maru

Last reported at 2018-Apr-22 12:06 UTC. Time now 2018-Apr-22 12:32 UTC.
Position N 34°24' E 134°15'.

Length 80 m; draft 5.2 m.

Type: Ship (hazmat cat A). MMSI: 431101045.

Date/timePositionNaut miles runAvg speedWind from/ knotsBaromVisibWave heightAir tempDewpointWater temp
2018-Apr-22 12:06N 34°24' E 134°15'112.2
2018-Apr-22 11:58N 34°24' E 134°17'612.0
2018-Apr-22 11:26N 34°23' E 134°24'512.7
2018-Apr-22 11:00N 34°20' E 134°30'912.1
2018-Apr-22 10:15N 34°14' E 134°39'311.0
2018-Apr-22 10:00N 34°12' E 134°41'611.6
2018-Apr-22 09:29N 34°07' E 134°45'612.6
2018-Apr-22 08:58N 34°03' E 134°50'612.5
2018-Apr-22 08:29N 33°58' E 134°55'612.3
2018-Apr-22 08:00N 33°53' E 134°60'13110.5
2018-Apr-21 19:32N 34°21' E 137°35'012.0
2018-Apr-21 19:30N 34°21' E 137°35'5912.3
2018-Apr-21 14:40N 34°34' E 138°45'412.2
2018-Apr-21 14:23N 34°34' E 138°50'511.9
2018-Apr-21 13:59N 34°35' E 138°55'812.5
2018-Apr-21 13:22N 34°40' E 139°02'711.7
2018-Apr-21 12:45N 34°47' E 139°07'311.7
2018-Apr-21 12:28N 34°49' E 139°09'611.3
2018-Apr-21 11:57N 34°53' E 139°14'711.0
2018-Apr-21 11:20N 34°57' E 139°21'410.8
2018-Apr-21 11:00N 34°59' E 139°25'510.4
2018-Apr-21 10:30N 35°01' E 139°31'611.5
2018-Apr-21 10:00N 35°04' E 139°37'611.3
2018-Apr-21 09:29N 35°07' E 139°43'511.6
2018-Apr-21 09:00N 35°12' E 139°46'510.6
2018-Apr-21 08:30N 35°17' E 139°44'611.6
2018-Apr-21 08:00N 35°23' E 139°42'611.0
2018-Apr-21 07:30N 35°27' E 139°47'510.7
2018-Apr-21 07:00N 35°29' E 139°53'1 2.9
2018-Apr-21 06:30N 35°29' E 139°54'0 0.0
2018-Apr-21 06:00N 35°29' E 139°54'2 4.6
2018-Apr-21 05:30N 35°30' E 139°56'611.8
2018-Apr-21 05:00N 35°33' E 140°03'2 3.2
2018-Apr-21 04:30N 35°33' E 140°05'0 0.0
2018-Apr-21 04:00N 35°33' E 140°05'0 0.0
2018-Apr-21 03:30N 35°33' E 140°05'0 0.1
2018-Apr-21 03:00N 35°33' E 140°05'0 0.1
2018-Apr-21 02:30N 35°33' E 140°05'0 0.0
2018-Apr-21 02:00N 35°33' E 140°05'0 0.0
2018-Apr-21 01:30N 35°33' E 140°05'0 0.0
2018-Apr-21 01:00N 35°33' E 140°05'0 0.1
2018-Apr-21 00:30N 35°33' E 140°05'0 0.0
2018-Apr-21 00:00N 35°33' E 140°05'0 0.7
2018-Apr-20 23:30N 35°33' E 140°04'2 3.3
2018-Apr-20 23:00N 35°33' E 140°02'0 0.0
2018-Apr-20 22:30N 35°33' E 140°02'0 0.0
2018-Apr-20 22:00N 35°33' E 140°02'0 0.1
2018-Apr-20 21:30N 35°33' E 140°02'3 6.3
2018-Apr-20 21:00N 35°36' E 140°05'1 1.3
2018-Apr-20 20:30N 35°36' E 140°06'0 0.0
2018-Apr-20 20:00N 35°36' E 140°06'0 0.0
2018-Apr-20 19:30N 35°36' E 140°06'0 0.0
2018-Apr-20 19:00N 35°36' E 140°06'0 0.0
2018-Apr-20 18:30N 35°36' E 140°06'0 0.0
2018-Apr-20 18:00N 35°36' E 140°06'0 0.0
2018-Apr-20 17:29N 35°36' E 140°06'0 0.0
2018-Apr-20 17:00N 35°36' E 140°06'0 0.0
2018-Apr-20 16:25N 35°36' E 140°06'0 0.0
2018-Apr-20 16:00N 35°36' E 140°06'0 0.0
2018-Apr-20 15:29N 35°36' E 140°06'0 0.0
2018-Apr-20 14:59N 35°36' E 140°06'0 0.0
2018-Apr-20 14:30N 35°36' E 140°06'0 0.0
2018-Apr-20 14:00N 35°36' E 140°06'0 0.0
2018-Apr-20 13:30N 35°36' E 140°06'0 0.0
2018-Apr-20 13:00N 35°36' E 140°06'0 0.0
2018-Apr-20 12:29N 35°36' E 140°06'0 0.0
2018-Apr-20 12:00N 35°36' E 140°06'0 0.0
2018-Apr-20 11:30N 35°36' E 140°06'0 0.0
2018-Apr-20 11:00N 35°36' E 140°06'0 0.0
2018-Apr-20 10:30N 35°36' E 140°06'0 0.0
2018-Apr-20 10:00N 35°36' E 140°06'0 0.0
2018-Apr-20 09:30N 35°36' E 140°06'0 0.0
2018-Apr-20 09:00N 35°36' E 140°06'0 0.0
2018-Apr-20 08:30N 35°36' E 140°06'0 0.0
2018-Apr-20 07:59N 35°36' E 140°06'0 0.0
2018-Apr-20 07:30N 35°36' E 140°06'0 0.0
2018-Apr-20 07:00N 35°36' E 140°06'0 0.0
2018-Apr-20 06:30N 35°36' E 140°06'0 0.0
2018-Apr-20 06:00N 35°36' E 140°06'0 0.0
2018-Apr-20 05:30N 35°36' E 140°06'0 0.0
2018-Apr-20 05:00N 35°36' E 140°06'0 0.0
2018-Apr-20 04:30N 35°36' E 140°06'0 0.0
2018-Apr-20 04:00N 35°36' E 140°06'0 0.0
2018-Apr-20 03:30N 35°36' E 140°06'1 1.8
2018-Apr-20 03:00N 35°35' E 140°05'612.0
2018-Apr-20 02:30N 35°32' E 139°59'612.7
2018-Apr-20 02:00N 35°29' E 139°52'612.4
2018-Apr-20 01:30N 35°25' E 139°47'612.1
2018-Apr-20 01:00N 35°19' E 139°44'611.5
2018-Apr-20 00:30N 35°14' E 139°47'612.1
2018-Apr-20 00:00N 35°08' E 139°46'611.9
2018-Apr-19 23:30N 35°03' E 139°41'712.9
2018-Apr-19 23:00N 34°59' E 139°35'713.9
2018-Apr-19 22:30N 34°55' E 139°28'713.8
2018-Apr-19 22:00N 34°51' E 139°21'713.2
2018-Apr-19 21:30N 34°47' E 139°15'713.2
2018-Apr-19 20:57N 34°42' E 139°08'613.1
2018-Apr-19 20:30N 34°39' E 139°02'612.8
2018-Apr-19 20:00N 34°35' E 138°56'713.6
2018-Apr-19 19:29N 34°34' E 138°47'713.6
2018-Apr-19 18:59N 34°33' E 138°39'1013.5
2018-Apr-19 18:14N 34°33' E 138°27'513.2
2018-Apr-19 17:51N 34°32' E 138°21'613.2
2018-Apr-19 17:26N 34°32' E 138°14'27112.2
2018-Apr-18 19:12N 32°45' E 133°15'8411.5
2018-Apr-18 11:51N 33°32' E 131°51'511.5
2018-Apr-18 11:25N 33°36' E 131°47'511.7
2018-Apr-18 11:00N 33°39' E 131°43'611.6
2018-Apr-18 10:30N 33°42' E 131°37'611.6
2018-Apr-18 10:00N 33°44' E 131°31'612.7
2018-Apr-18 09:30N 33°47' E 131°24'712.9
2018-Apr-18 09:00N 33°49' E 131°17'712.9
2018-Apr-18 08:28N 33°52' E 131°09'613.3
2018-Apr-18 08:00N 33°56' E 131°03'510.9
2018-Apr-18 07:30N 33°57' E 130°57'4 9.0
2018-Apr-18 07:00N 33°53' E 130°54'0 0.0
2018-Apr-18 06:30N 33°53' E 130°54'0 0.0
2018-Apr-18 06:00N 33°53' E 130°54'0 0.0
2018-Apr-18 05:31N 33°53' E 130°54'0 0.0
2018-Apr-18 05:00N 33°53' E 130°54'0 0.0
2018-Apr-18 04:31N 33°53' E 130°54'0 0.0
2018-Apr-18 04:00N 33°53' E 130°54'0 0.0
2018-Apr-18 03:30N 33°53' E 130°54'0 0.0
2018-Apr-18 03:00N 33°53' E 130°54'1 2.1
2018-Apr-18 02:30N 33°54' E 130°55'612.6
2018-Apr-18 02:01N 33°59' E 130°60'4 7.3
2018-Apr-18 01:30N 33°56' E 131°03'0 0.0
2018-Apr-18 01:00N 33°56' E 131°03'0 0.0
2018-Apr-18 00:30N 33°56' E 131°03'0 0.0
2018-Apr-18 00:00N 33°56' E 131°03'0 0.0
2018-Apr-17 23:30N 33°56' E 131°03'0 0.0
2018-Apr-17 23:00N 33°56' E 131°03'0 0.0
2018-Apr-17 22:30N 33°56' E 131°03'0 0.0
2018-Apr-17 22:01N 33°56' E 131°03'0 0.1
2018-Apr-17 21:30N 33°56' E 131°03'0 0.0
2018-Apr-17 21:00N 33°56' E 131°03'0 0.0
2018-Apr-17 20:30N 33°56' E 131°03'0 0.0
2018-Apr-17 20:00N 33°56' E 131°03'0 0.0
2018-Apr-17 19:31N 33°56' E 131°03'0 0.0
2018-Apr-17 19:00N 33°56' E 131°03'0 0.0
2018-Apr-17 18:30N 33°56' E 131°03'0 0.1
2018-Apr-17 18:00N 33°56' E 131°03'0 0.1
2018-Apr-17 17:30N 33°56' E 131°03'0 0.0
2018-Apr-17 17:01N 33°56' E 131°03'0 0.0
2018-Apr-17 16:30N 33°56' E 131°03'0 0.0
2018-Apr-17 16:00N 33°56' E 131°03'0 0.1
2018-Apr-17 15:30N 33°56' E 131°03'0 0.0
2018-Apr-17 15:00N 33°56' E 131°03'0 0.1
2018-Apr-17 14:30N 33°56' E 131°03'0 0.0
2018-Apr-17 14:00N 33°56' E 131°03'0 0.0
2018-Apr-17 13:30N 33°56' E 131°03'0 0.0
2018-Apr-17 13:00N 33°56' E 131°03'1 1.3
2018-Apr-17 12:30N 33°56' E 131°02'1 2.7
2018-Apr-17 12:00N 33°55' E 131°03'612.6
2018-Apr-17 11:30N 33°53' E 131°10'713.7
2018-Apr-17 11:00N 33°51' E 131°19'713.5
2018-Apr-17 10:30N 33°50' E 131°27'713.4
2018-Apr-17 10:00N 33°49' E 131°34'713.3
2018-Apr-17 09:30N 33°48' E 131°42'713.1
2018-Apr-17 08:59N 33°46' E 131°50'912.8
2018-Apr-17 08:15N 33°46' E 132°02'1612.9
2018-Apr-17 06:58N 33°50' E 132°21'1113.7
2018-Apr-17 06:11N 33°53' E 132°33'214.0
2018-Apr-17 06:01N 33°54' E 132°36'814.9
2018-Apr-17 05:29N 33°59' E 132°43'7 0.8
2018-Apr-16 19:55N 34°03' E 132°51'0 0.0
2018-Apr-16 15:55N 34°03' E 132°51'3 0.2
2018-Apr-15 18:42N 34°01' E 132°47'210.8
2018-Apr-15 18:30N 33°60' E 132°45'510.0
2018-Apr-15 18:00N 33°56' E 132°41'610.5
2018-Apr-15 17:27N 33°53' E 132°35'1011.0
2018-Apr-15 16:33N 33°50' E 132°24'111.1
2018-Apr-15 16:29N 33°50' E 132°23'811.3
2018-Apr-15 15:49N 33°50' E 132°13'711.1
2018-Apr-15 15:09N 33°46' E 132°06'211.6
2018-Apr-15 15:00N 33°45' E 132°04'612.2
2018-Apr-15 14:30N 33°45' E 131°57'612.7
2018-Apr-15 14:00N 33°46' E 131°49'713.0
2018-Apr-15 13:30N 33°48' E 131°42'713.0
2018-Apr-15 13:00N 33°49' E 131°34'612.6
2018-Apr-15 12:30N 33°50' E 131°27'612.3
2018-Apr-15 12:00N 33°51' E 131°19'611.4
2018-Apr-15 11:29N 33°54' E 131°13'3 6.0
2018-Apr-15 11:00N 33°56' E 131°11'0 0.0
2018-Apr-15 10:30N 33°56' E 131°11'0 0.0
2018-Apr-15 10:00N 33°56' E 131°11'0 0.0
2018-Apr-15 09:30N 33°56' E 131°11'0 0.0
2018-Apr-15 09:01N 33°56' E 131°11'0 0.0
2018-Apr-15 08:30N 33°56' E 131°11'0 0.0
2018-Apr-15 08:00N 33°56' E 131°11'0 0.0
2018-Apr-15 07:31N 33°56' E 131°11'0 0.0
2018-Apr-15 07:00N 33°56' E 131°11'0 0.0
2018-Apr-15 06:29N 33°56' E 131°11'1 1.8
2018-Apr-15 06:00N 33°56' E 131°12'2 3.5
2018-Apr-15 05:30N 33°54' E 131°12'0 0.0
2018-Apr-15 05:00N 33°54' E 131°12'0 0.0
2018-Apr-15 04:31N 33°54' E 131°12'0 0.0
2018-Apr-15 04:01N 33°54' E 131°12'0 0.0
2018-Apr-15 03:30N 33°54' E 131°12'0 0.0
2018-Apr-15 03:01N 33°54' E 131°12'0 0.0
2018-Apr-15 02:30N 33°54' E 131°12'0 0.0
2018-Apr-15 02:01N 33°54' E 131°12'0 0.0
2018-Apr-15 01:30N 33°54' E 131°12'0 0.0
2018-Apr-15 01:00N 33°54' E 131°12'0 0.0
2018-Apr-15 00:30N 33°54' E 131°12'0 0.0
2018-Apr-15 00:00N 33°54' E 131°12'0 0.0
2018-Apr-14 23:30N 33°54' E 131°12'0 0.1
2018-Apr-14 23:00N 33°54' E 131°12'0 0.1
2018-Apr-14 22:30N 33°54' E 131°12'0 0.1
2018-Apr-14 22:00N 33°54' E 131°11'0 0.1
2018-Apr-14 21:31N 33°54' E 131°12'0 0.1
2018-Apr-14 21:01N 33°54' E 131°11'0 0.0
2018-Apr-14 20:30N 33°54' E 131°11'0 0.0
2018-Apr-14 20:00N 33°54' E 131°11'0 0.0
2018-Apr-14 19:30N 33°54' E 131°11'0 0.1
2018-Apr-14 19:00N 33°54' E 131°12'0 0.0
2018-Apr-14 18:30N 33°54' E 131°12'0 0.1
2018-Apr-14 17:58N 33°54' E 131°12'0 0.0
2018-Apr-14 17:31N 33°54' E 131°12'0 0.0
2018-Apr-14 17:01N 33°54' E 131°12'0 0.0
2018-Apr-14 16:30N 33°54' E 131°12'0 0.0
2018-Apr-14 16:01N 33°54' E 131°12'0 0.0
2018-Apr-14 15:30N 33°54' E 131°12'0 0.0
2018-Apr-14 15:00N 33°54' E 131°12'0 0.0
2018-Apr-14 14:30N 33°54' E 131°12'0 0.0
2018-Apr-14 14:01N 33°54' E 131°12'0 0.0
2018-Apr-14 13:30N 33°54' E 131°12'0 0.0
2018-Apr-14 13:00N 33°54' E 131°12'0 0.0
2018-Apr-14 12:30N 33°54' E 131°12'0 0.1
2018-Apr-14 12:00N 33°54' E 131°12'0 0.2
2018-Apr-14 11:30N 33°54' E 131°11'0 0.0
2018-Apr-14 11:00N 33°54' E 131°11'0 0.0
2018-Apr-14 10:31N 33°54' E 131°11'0 0.0
2018-Apr-14 10:00N 33°54' E 131°11'0 0.0
2018-Apr-14 09:31N 33°54' E 131°11'3 6.3
2018-Apr-14 09:00N 33°52' E 131°15'713.9
2018-Apr-14 08:31N 33°51' E 131°23'713.7
2018-Apr-14 08:00N 33°50' E 131°31'713.8
2018-Apr-14 07:29N 33°48' E 131°40'613.0
2018-Apr-14 06:59N 33°47' E 131°47'1213.0
2018-Apr-14 06:03N 33°46' E 132°02'112.9
2018-Apr-14 06:01N 33°46' E 132°02'1813.2
2018-Apr-14 04:37N 33°50' E 132°24'414.1
2018-Apr-14 04:18N 33°52' E 132°29'414.1
2018-Apr-14 04:00N 33°53' E 132°33'814.4
2018-Apr-14 03:27N 33°57' E 132°42'  

Dump ship's entire track history